Time;durP1;ratioP1;P1;durP2;ratioP2;P2;SDS_P1;SDS_P2;PMS_P1;PMS_P2;Temp;Humidity;BMP_temperature;BMP_pressure;BME280_temperature;BME280_humidity;BME280_pressure;Samples;Min_cycle;Max_cycle;Signal;HPM_P1;HPM_P2
2024/03/14 00:01:00;;;;;;;0.30;0.30;;;;;;;-146.26;100.00;59860.63;5073456;28;20055;-75
2024/03/14 00:03:28;;;;;;;0.95;0.82;;;;;;;-146.26;100.00;59860.63;5076450;28;20052;-75
2024/03/14 00:05:54;;;;;;;0.30;0.30;;;;;;;-146.26;100.00;59860.63;5093190;28;21384;-74
2024/03/14 00:08:20;;;;;;;0.40;0.38;;;;;;;-146.26;100.00;59860.63;5078409;28;20046;-75
2024/03/14 00:10:47;;;;;;;0.30;0.30;;;;;;;-146.26;100.00;59860.63;5071501;28;20456;-73
2024/03/14 00:13:13;;;;;;;0.32;0.32;;;;;;;-146.26;100.00;59860.63;5073927;28;20426;-73
2024/03/14 00:15:39;;;;;;;0.32;0.32;;;;;;;-146.26;100.00;59860.63;5078453;28;20044;-73
2024/03/14 00:18:04;;;;;;;0.30;0.30;;;;;;;-146.26;100.00;59860.63;5079206;28;20427;-74
2024/03/14 00:20:31;;;;;;;0.40;0.40;;;;;;;-146.26;100.00;59860.63;5077275;28;20044;-74
2024/03/14 00:22:58;;;;;;;0.30;0.30;;;;;;;-146.26;100.00;59860.63;5073119;28;20051;-73
2024/03/14 00:25:24;;;;;;;0.32;0.32;;;;;;;-146.26;100.00;59860.63;5078551;28;20054;-74
2024/03/14 00:27:49;;;;;;;0.28;0.28;;;;;;;-146.26;100.00;59860.63;5091130;28;20171;-73
2024/03/14 00:30:18;;;;;;;0.73;0.70;;;;;;;-146.26;100.00;59860.63;5079301;28;20050;-74
2024/03/14 00:32:44;;;;;;;0.95;0.95;;;;;;;-146.26;100.00;59860.63;5074968;28;20494;-73
2024/03/14 00:35:12;;;;;;;0.30;0.30;;;;;;;-146.26;100.00;59860.63;5057221;28;20029;-74
2024/03/14 00:37:39;;;;;;;0.30;0.30;;;;;;;-146.26;100.00;59860.63;5080648;28;20083;-74
2024/03/14 00:40:08;;;;;;;0.30;0.30;;;;;;;-146.26;100.00;59860.63;5084983;28;20044;-73
2024/03/14 00:42:34;;;;;;;0.30;0.30;;;;;;;-146.26;100.00;59860.63;5084750;28;20369;-74
2024/03/14 00:45:00;;;;;;;0.20;0.20;;;;;;;-146.26;100.00;59860.63;5074682;28;20048;-75
2024/03/14 00:47:26;;;;;;;0.73;0.73;;;;;;;-146.26;100.00;59860.63;5083256;28;20460;-74
2024/03/14 00:49:52;;;;;;;0.30;0.30;;;;;;;-146.26;100.00;59860.63;5082323;28;20086;-73
2024/03/14 00:52:19;;;;;;;0.30;0.30;;;;;;;-146.26;100.00;59860.63;5080202;28;20044;-74
2024/03/14 00:54:45;;;;;;;2.20;2.05;;;;;;;-146.26;100.00;59860.63;5080193;28;20044;-74
2024/03/14 00:57:10;;;;;;;0.30;0.30;;;;;;;-146.26;100.00;59860.63;5082287;28;20101;-74
2024/03/14 00:59:36;;;;;;;0.20;0.20;;;;;;;-146.26;100.00;59860.63;5074292;28;20119;-74
2024/03/14 01:02:02;;;;;;;0.30;0.30;;;;;;;-146.26;100.00;59860.63;5067262;28;20458;-74
2024/03/14 01:04:29;;;;;;;0.30;0.30;;;;;;;-146.26;100.00;59860.63;5077717;28;20044;-72
2024/03/14 01:06:54;;;;;;;0.30;0.30;;;;;;;-146.26;100.00;59860.63;5080347;28;20040;-74
2024/03/14 01:09:24;;;;;;;0.30;0.30;;;;;;;-146.26;100.00;59860.63;5079069;28;20600;-73
2024/03/14 01:11:52;;;;;;;0.32;0.32;;;;;;;-146.26;100.00;59860.63;5081809;28;20024;-75
2024/03/14 01:14:19;;;;;;;0.35;0.35;;;;;;;-146.26;100.00;59860.63;5076180;28;20047;-75
2024/03/14 01:16:44;;;;;;;0.38;0.38;;;;;;;-146.26;100.00;59860.63;5072780;28;20049;-74
2024/03/14 01:19:11;;;;;;;0.30;0.30;;;;;;;-146.26;100.00;59860.63;5077559;28;20048;-74
2024/03/14 01:21:39;;;;;;;0.40;0.40;;;;;;;-146.26;100.00;59860.63;5073659;28;20051;-75
2024/03/14 01:24:05;;;;;;;0.30;0.30;;;;;;;-146.26;100.00;59860.63;5070043;28;20056;-75
2024/03/14 01:26:32;;;;;;;0.20;0.20;;;;;;;-146.26;100.00;59860.63;5076273;28;20044;-74
2024/03/14 01:28:58;;;;;;;0.20;0.20;;;;;;;-146.26;100.00;59860.63;5070402;28;20123;-74
2024/03/14 01:31:24;;;;;;;0.30;0.30;;;;;;;-146.26;100.00;59860.63;5077070;28;20150;-73
2024/03/14 01:33:51;;;;;;;0.30;0.30;;;;;;;-146.26;100.00;59860.63;5080738;28;20050;-76
2024/03/14 01:36:16;;;;;;;0.30;0.30;;;;;;;-146.26;100.00;59860.63;5077565;28;20566;-73
2024/03/14 01:38:42;;;;;;;0.30;0.30;;;;;;;-146.26;100.00;59860.63;5073817;28;20047;-74
2024/03/14 01:41:19;;;;;;;0.20;0.20;;;;;;;-146.26;100.00;59860.63;5060311;28;20032;-74
2024/03/14 01:44:00;;;;;;;0.28;0.28;;;;;;;-146.26;100.00;59860.63;5071663;28;20053;-75
2024/03/14 01:46:27;;;;;;;0.30;0.30;;;;;;;-146.26;100.00;59860.63;5079814;28;20040;-74
2024/03/14 01:48:57;;;;;;;0.38;0.38;;;;;;;-146.26;100.00;59860.63;5082105;28;20040;-75
2024/03/14 01:51:24;;;;;;;0.30;0.30;;;;;;;-146.26;100.00;59860.63;5078524;28;20048;-73
2024/03/14 01:53:53;;;;;;;0.30;0.30;;;;;;;-146.26;100.00;59860.63;5079755;28;20040;-73
2024/03/14 01:56:23;;;;;;;0.30;0.30;;;;;;;-146.26;100.00;59860.63;5063894;28;20047;-74
2024/03/14 01:58:50;;;;;;;0.20;0.20;;;;;;;-146.26;100.00;59860.63;5088445;28;20048;-76
2024/03/14 02:01:16;;;;;;;0.30;0.30;;;;;;;-146.26;100.00;59860.63;5075995;28;20060;-75
2024/03/14 02:03:51;;;;;;;0.35;0.35;;;;;;;-146.26;100.00;59860.63;5088406;28;20514;-74
2024/03/14 02:06:37;;;;;;;0.30;0.30;;;;;;;-146.26;100.00;59860.63;5071951;28;20052;-74
2024/03/14 02:09:02;;;;;;;0.50;0.40;;;;;;;-146.26;100.00;59860.63;5081963;28;20448;-75
2024/03/14 02:11:28;;;;;;;0.30;0.30;;;;;;;-146.26;100.00;59860.63;5079507;28;20034;-74
2024/03/14 02:13:55;;;;;;;0.30;0.30;;;;;;;-146.26;100.00;59860.63;5088298;28;20531;-75
2024/03/14 02:16:21;;;;;;;0.30;0.30;;;;;;;-146.26;100.00;59860.63;5082986;28;20052;-75
2024/03/14 02:18:47;;;;;;;0.30;0.30;;;;;;;-146.26;100.00;59860.63;5086702;28;20463;-74
2024/03/14 02:21:12;;;;;;;0.30;0.30;;;;;;;-146.26;100.00;59860.63;5086805;28;20546;-74
2024/03/14 02:23:38;;;;;;;0.20;0.20;;;;;;;-146.26;100.00;59860.63;5082838;28;20036;-76
2024/03/14 02:26:06;;;;;;;0.30;0.30;;;;;;;-146.26;100.00;59860.63;5080445;28;20498;-72
2024/03/14 02:28:32;;;;;;;0.30;0.30;;;;;;;-146.26;100.00;59860.63;5080218;28;20036;-73
2024/03/14 02:30:58;;;;;;;0.20;0.20;;;;;;;-146.26;100.00;59860.63;5077078;28;20140;-74
2024/03/14 02:33:23;;;;;;;0.30;0.30;;;;;;;-146.26;100.00;59860.63;5073391;28;20388;-77
2024/03/14 02:35:49;;;;;;;0.30;0.30;;;;;;;-146.26;100.00;59860.63;5076976;28;20040;-74
2024/03/14 02:38:15;;;;;;;0.40;0.40;;;;;;;-146.26;100.00;59860.63;5072030;28;20028;-74
2024/03/14 02:40:41;;;;;;;0.30;0.30;;;;;;;-146.26;100.00;59860.63;5075088;28;20563;-74
2024/03/14 02:43:06;;;;;;;0.20;0.20;;;;;;;-146.26;100.00;59860.63;5082346;28;20073;-74
2024/03/14 02:45:32;;;;;;;0.30;0.30;;;;;;;-146.26;100.00;59860.63;5078434;28;20044;-74
2024/03/14 02:47:58;;;;;;;0.30;0.30;;;;;;;-146.26;100.00;59860.63;5053508;28;20064;-74
2024/03/14 02:50:24;;;;;;;0.32;0.32;;;;;;;-146.26;100.00;59860.63;5096869;27;20100;-76
2024/03/14 02:52:50;;;;;;;0.30;0.30;;;;;;;-146.26;100.00;59860.63;5074434;28;20045;-73
2024/03/14 02:55:16;;;;;;;0.73;0.73;;;;;;;-146.26;100.00;59860.63;5080195;28;20147;-74
2024/03/14 02:57:44;;;;;;;0.30;0.30;;;;;;;-146.26;100.00;59860.63;5074591;28;20075;-76
2024/03/14 03:00:16;;;;;;;0.40;0.40;;;;;;;-146.26;100.00;59860.63;5083872;28;20131;-73
2024/03/14 03:02:43;;;;;;;0.38;0.38;;;;;;;-146.26;100.00;59860.63;5080462;28;20091;-74
2024/03/14 03:05:10;;;;;;;0.30;0.30;;;;;;;-146.26;100.00;59860.63;5086823;28;20395;-75
2024/03/14 03:07:37;;;;;;;0.30;0.30;;;;;;;-146.26;100.00;59860.63;5087294;28;20066;-74
2024/03/14 03:10:05;;;;;;;0.22;0.22;;;;;;;-146.26;100.00;59860.63;5068333;28;20048;-75
2024/03/14 03:12:32;;;;;;;0.20;0.20;;;;;;;-146.26;100.00;59860.63;5081129;28;20044;-75
2024/03/14 03:14:58;;;;;;;0.30;0.30;;;;;;;-146.26;100.00;59860.63;5079786;28;20127;-73
2024/03/14 03:17:23;;;;;;;0.20;0.20;;;;;;;-146.26;100.00;59860.63;5087341;28;20143;-75
2024/03/14 03:19:49;;;;;;;0.30;0.30;;;;;;;-146.26;100.00;59860.63;5086468;28;20040;-74
2024/03/14 03:22:15;;;;;;;0.30;0.30;;;;;;;-146.26;100.00;59860.63;5082261;28;20123;-77
2024/03/14 03:24:40;;;;;;;0.50;0.50;;;;;;;-146.26;100.00;59860.63;5078300;28;20214;-73
2024/03/14 03:27:13;;;;;;;0.40;0.40;;;;;;;-146.26;100.00;59860.63;5082055;28;20067;-74
2024/03/14 03:29:39;;;;;;;0.32;0.32;;;;;;;-146.26;100.00;59860.63;5069889;28;20039;-74
2024/03/14 03:32:05;;;;;;;0.32;0.32;;;;;;;-146.26;100.00;59860.63;5083105;28;20044;-76
2024/03/14 03:34:30;;;;;;;0.28;0.28;;;;;;;-146.26;100.00;59860.63;5080931;28;20058;-75
2024/03/14 03:36:56;;;;;;;0.63;0.63;;;;;;;-146.26;100.00;59860.63;5086566;28;20083;-76
2024/03/14 03:39:25;;;;;;;0.30;0.30;;;;;;;-146.26;100.00;59860.63;5079905;28;20106;-74
2024/03/14 03:41:52;;;;;;;0.30;0.30;;;;;;;-146.26;100.00;59860.63;5081580;28;20036;-74
2024/03/14 03:44:19;;;;;;;0.20;0.20;;;;;;;-146.26;100.00;59860.63;5069829;28;20029;-75
2024/03/14 03:46:44;;;;;;;0.30;0.30;;;;;;;-146.26;100.00;59860.63;5076484;28;20052;-76
2024/03/14 03:49:10;;;;;;;0.30;0.30;;;;;;;-146.26;100.00;59860.63;5084999;28;20651;-73
2024/03/14 03:51:36;;;;;;;0.35;0.35;;;;;;;-146.26;100.00;59860.63;5082592;28;20091;-74
2024/03/14 03:54:03;;;;;;;0.30;0.30;;;;;;;-146.26;100.00;59860.63;5078806;28;20047;-74
2024/03/14 03:56:29;;;;;;;0.45;0.45;;;;;;;-146.26;100.00;59860.63;5071540;28;20036;-74
2024/03/14 03:58:55;;;;;;;0.55;0.55;;;;;;;-146.26;100.00;59860.63;5073298;28;20041;-75
2024/03/14 04:01:22;;;;;;;0.30;0.30;;;;;;;-146.26;100.00;59860.63;5066129;28;20408;-74
2024/03/14 04:03:48;;;;;;;0.30;0.30;;;;;;;-146.26;100.00;59860.63;5058690;28;20059;-75
2024/03/14 04:06:17;;;;;;;0.40;0.40;;;;;;;-146.26;100.00;59860.63;5072799;28;20048;-75
2024/03/14 04:08:45;;;;;;;0.40;0.40;;;;;;;-146.26;100.00;59860.63;5065015;28;20064;-75
2024/03/14 04:11:12;;;;;;;0.40;0.40;;;;;;;-146.26;100.00;59860.63;5076675;28;20028;-73
2024/03/14 04:13:37;;;;;;;0.30;0.30;;;;;;;-146.26;100.00;59860.63;5081454;28;20373;-73
2024/03/14 04:16:04;;;;;;;0.40;0.40;;;;;;;-146.26;100.00;59860.63;5074663;28;20048;-74
2024/03/14 04:18:34;;;;;;;0.40;0.40;;;;;;;-146.26;100.00;59860.63;5073142;28;20101;-73
2024/03/14 04:21:02;;;;;;;0.47;0.47;;;;;;;-146.26;100.00;59860.63;5076325;28;20506;-74
2024/03/14 04:23:28;;;;;;;0.28;0.28;;;;;;;-146.26;100.00;59860.63;5070928;28;20025;-75
2024/03/14 04:25:54;;;;;;;0.20;0.20;;;;;;;-146.26;100.00;59860.63;5082558;28;20519;-75
2024/03/14 04:28:23;;;;;;;0.30;0.30;;;;;;;-146.26;100.00;59860.63;5081989;28;20141;-74
2024/03/14 04:30:50;;;;;;;0.30;0.30;;;;;;;-146.26;100.00;59860.63;5078972;28;20040;-76
2024/03/14 04:33:17;;;;;;;0.30;0.30;;;;;;;-146.26;100.00;59860.63;5075245;28;20082;-74
2024/03/14 04:35:43;;;;;;;0.70;0.70;;;;;;;-146.26;100.00;59860.63;5081277;28;20029;-74
2024/03/14 04:38:09;;;;;;;0.40;0.40;;;;;;;-146.26;100.00;59860.63;5081270;28;20038;-74
2024/03/14 04:40:35;;;;;;;0.30;0.30;;;;;;;-146.26;100.00;59860.63;5084368;28;20041;-74
2024/03/14 04:43:01;;;;;;;0.30;0.30;;;;;;;-146.26;100.00;59860.63;5081192;28;21586;-75
2024/03/14 04:45:27;;;;;;;0.20;0.20;;;;;;;-146.26;100.00;59860.63;5081798;28;20380;-73
2024/03/14 04:47:54;;;;;;;0.30;0.30;;;;;;;-146.26;100.00;59860.63;5090067;28;20051;-73
2024/03/14 04:50:20;;;;;;;13.18;12.48;;;;;;;-146.26;100.00;59860.63;5088971;28;20028;-75
2024/03/14 04:52:46;;;;;;;0.25;0.25;;;;;;;-146.26;100.00;59860.63;5062030;28;20479;-74
2024/03/14 04:55:12;;;;;;;0.30;0.30;;;;;;;-146.26;100.00;59860.63;5071085;28;20057;-74
2024/03/14 04:57:40;;;;;;;0.30;0.30;;;;;;;-146.26;100.00;59860.63;5075803;28;20052;-73
2024/03/14 05:00:20;;;;;;;0.30;0.30;;;;;;;-146.26;100.00;59860.63;5074213;28;21075;-75
2024/03/14 05:02:51;;;;;;;0.30;0.30;;;;;;;-146.26;100.00;59860.63;5085787;28;20039;-73
2024/03/14 05:05:23;;;;;;;0.30;0.30;;;;;;;-146.26;100.00;59860.63;5089720;28;20063;-76
2024/03/14 05:07:49;;;;;;;0.30;0.30;;;;;;;-146.26;100.00;59860.63;5089117;28;20487;-74
2024/03/14 05:10:24;;;;;;;0.30;0.30;;;;;;;-146.26;100.00;59860.63;5084260;28;20505;-74
2024/03/14 05:12:50;;;;;;;0.30;0.30;;;;;;;-146.26;100.00;59860.63;5082107;28;20047;-77
2024/03/14 05:15:15;;;;;;;0.60;0.40;;;;;;;-146.26;100.00;59860.63;5062119;28;20044;-75
2024/03/14 05:17:45;;;;;;;0.30;0.30;;;;;;;-146.26;100.00;59860.63;5083452;28;20109;-75
2024/03/14 05:20:12;;;;;;;0.30;0.30;;;;;;;-146.26;100.00;59860.63;5080392;28;20038;-75
2024/03/14 05:22:38;;;;;;;0.40;0.40;;;;;;;-146.26;100.00;59860.63;5084319;28;20579;-74
2024/03/14 05:25:09;;;;;;;0.57;0.57;;;;;;;-146.26;100.00;59860.63;5075899;28;20162;-74
2024/03/14 05:27:35;;;;;;;0.50;0.50;;;;;;;-146.26;100.00;59860.63;5074921;28;20059;-75
2024/03/14 05:30:00;;;;;;;0.30;0.30;;;;;;;-146.26;100.00;59860.63;5081333;28;20053;-74
2024/03/14 05:32:29;;;;;;;0.30;0.30;;;;;;;-146.26;100.00;59860.63;5085310;28;20044;-75
2024/03/14 05:34:55;;;;;;;0.50;0.50;;;;;;;-146.26;100.00;59860.63;5082398;28;20482;-74
2024/03/14 05:37:27;;;;;;;0.25;0.25;;;;;;;-146.26;100.00;59860.63;5080230;28;20051;-74
2024/03/14 05:39:54;;;;;;;0.30;0.30;;;;;;;-146.26;100.00;59860.63;5078094;28;20044;-76
2024/03/14 05:42:19;;;;;;;0.30;0.30;;;;;;;-146.26;100.00;59860.63;5080664;28;20058;-76
2024/03/14 05:44:48;;;;;;;0.50;0.50;;;;;;;-146.26;100.00;59860.63;5085217;28;20127;-76
2024/03/14 05:47:15;;;;;;;0.40;0.40;;;;;;;-146.26;100.00;59860.63;5080070;28;20038;-74
2024/03/14 05:49:41;;;;;;;0.35;0.35;;;;;;;-146.26;100.00;59860.63;5082900;28;20070;-75
2024/03/14 05:52:06;;;;;;;0.30;0.30;;;;;;;-146.26;100.00;59860.63;5058833;28;20044;-75
2024/03/14 05:54:32;;;;;;;0.38;0.38;;;;;;;-146.26;100.00;59860.63;5056997;28;20044;-74
2024/03/14 05:56:58;;;;;;;0.30;0.30;;;;;;;-146.26;100.00;59860.63;5061161;28;20060;-74
2024/03/14 05:59:24;;;;;;;0.47;0.47;;;;;;;-146.26;100.00;59860.63;5052019;28;20036;-75
2024/03/14 06:01:51;;;;;;;2.78;2.67;;;;;;;-146.26;100.00;59860.63;5035889;28;20067;-75
2024/03/14 06:04:17;;;;;;;0.30;0.30;;;;;;;-146.26;100.00;59860.63;5055889;28;20064;-75
2024/03/14 06:06:42;;;;;;;0.30;0.30;;;;;;;-146.26;100.00;59860.63;5053944;28;20794;-74
2024/03/14 06:09:08;;;;;;;0.25;0.25;;;;;;;-146.26;100.00;59860.63;5054083;28;20088;-77
2024/03/14 06:11:34;;;;;;;0.20;0.20;;;;;;;-146.26;100.00;59860.63;5055330;28;21021;-74
2024/03/14 06:13:59;;;;;;;0.30;0.30;;;;;;;-146.26;100.00;59860.63;5055310;28;20540;-76
2024/03/14 06:16:26;;;;;;;0.30;0.30;;;;;;;-146.26;100.00;59860.63;5038292;28;20037;-75
2024/03/14 06:18:52;;;;;;;0.30;0.30;;;;;;;-146.26;100.00;59860.63;5061120;28;20060;-75
2024/03/14 06:21:17;;;;;;;0.30;0.30;;;;;;;-146.26;100.00;59860.63;5053152;28;20040;-75
2024/03/14 06:23:43;;;;;;;0.30;0.30;;;;;;;-146.26;100.00;59860.63;5048261;28;20044;-75
2024/03/14 06:26:08;;;;;;;0.30;0.30;;;;;;;-146.26;100.00;59860.63;5059298;28;20086;-74
2024/03/14 06:28:38;;;;;;;0.73;0.73;;;;;;;-146.26;100.00;59860.63;5055443;28;20516;-75
2024/03/14 06:31:03;;;;;;;0.30;0.30;;;;;;;-146.26;100.00;59860.63;5049050;28;20152;-75
2024/03/14 06:33:29;;;;;;;0.30;0.30;;;;;;;-146.26;100.00;59860.63;5052650;28;20404;-77
2024/03/14 06:35:55;;;;;;;0.75;0.75;;;;;;;-146.26;100.00;59860.63;5054622;28;20523;-76
2024/03/14 06:38:24;;;;;;;0.30;0.30;;;;;;;-146.26;100.00;59860.63;5068078;28;20120;-74
2024/03/14 06:40:52;;;;;;;0.22;0.22;;;;;;;-146.26;100.00;59860.63;5048707;28;20416;-75
2024/03/14 06:43:21;;;;;;;0.30;0.30;;;;;;;-146.26;100.00;59860.63;5049051;28;20091;-73
2024/03/14 06:45:48;;;;;;;0.40;0.40;;;;;;;-146.26;100.00;59860.63;5056729;28;20052;-77
2024/03/14 06:48:17;;;;;;;1.75;1.65;;;;;;;-146.26;100.00;59860.63;5057152;28;20056;-84
2024/03/14 06:50:45;;;;;;;0.30;0.30;;;;;;;-146.26;100.00;59860.63;5054758;28;20021;-79
2024/03/14 06:53:12;;;;;;;0.30;0.30;;;;;;;-146.26;100.00;59860.63;5066551;28;20047;-80
2024/03/14 06:55:37;;;;;;;0.20;0.20;;;;;;;-146.26;100.00;59860.63;5070310;28;20468;-77
2024/03/14 06:58:03;;;;;;;0.20;0.20;;;;;;;-146.26;100.00;59860.63;5075186;28;20048;-77
2024/03/14 07:00:30;;;;;;;0.52;0.52;;;;;;;-146.26;100.00;59860.63;5084021;28;20048;-78
2024/03/14 07:02:56;;;;;;;0.50;0.50;;;;;;;-146.26;100.00;59860.63;5085169;28;20103;-82
2024/03/14 07:05:24;;;;;;;0.30;0.30;;;;;;;-146.26;100.00;59860.63;5086240;28;20097;-81
2024/03/14 07:07:49;;;;;;;0.30;0.30;;;;;;;-146.26;100.00;59860.63;5067080;28;20071;-83
2024/03/14 07:10:19;;;;;;;0.30;0.30;;;;;;;-146.26;100.00;59860.63;5086947;28;20076;-82
2024/03/14 07:12:48;;;;;;;0.30;0.30;;;;;;;-146.26;100.00;59860.63;5082830;28;20048;-81
2024/03/14 07:15:17;;;;;;;0.20;0.20;;;;;;;-146.26;100.00;59860.63;5085291;28;20051;-81
2024/03/14 07:17:43;;;;;;;0.30;0.30;;;;;;;-146.26;100.00;59860.63;5104810;28;20040;-81
2024/03/14 07:20:24;;;;;;;0.52;0.52;;;;;;;-146.26;100.00;59860.63;5087069;28;20051;-82
2024/03/14 07:22:50;;;;;;;0.40;0.40;;;;;;;-146.26;100.00;59860.63;5102013;28;20040;-81
2024/03/14 07:25:18;;;;;;;0.28;0.28;;;;;;;-146.26;100.00;59860.63;5081958;28;20353;-82
2024/03/14 07:27:48;;;;;;;0.25;0.25;;;;;;;-146.26;100.00;59860.63;5082865;28;20093;-85
2024/03/14 07:30:14;;;;;;;0.25;0.25;;;;;;;-146.26;100.00;59860.63;5082055;28;20084;-82
2024/03/14 07:32:42;;;;;;;3.53;3.40;;;;;;;-146.26;100.00;59860.63;5083661;28;20122;-82
2024/03/14 07:35:11;;;;;;;0.30;0.30;;;;;;;-146.26;100.00;59860.63;5085376;28;20066;-80
2024/03/14 07:37:37;;;;;;;0.20;0.20;;;;;;;-146.26;100.00;59860.63;5066186;28;20055;-83
2024/03/14 07:40:05;;;;;;;0.35;0.35;;;;;;;-146.26;100.00;59860.63;5084842;28;20063;-81
2024/03/14 07:42:34;;;;;;;0.30;0.30;;;;;;;-146.26;100.00;59860.63;5083256;28;20044;-82
2024/03/14 07:44:59;;;;;;;0.30;0.30;;;;;;;-146.26;100.00;59860.63;5085084;28;20605;-82
2024/03/14 07:47:25;;;;;;;0.30;0.30;;;;;;;-146.26;100.00;59860.63;5085765;28;20040;-83
2024/03/14 07:49:54;;;;;;;2.97;2.83;;;;;;;-146.26;100.00;59860.63;5086554;28;20468;-82
2024/03/14 07:52:19;;;;;;;0.65;0.65;;;;;;;-146.26;100.00;59860.63;5082626;28;20044;-81
2024/03/14 07:54:45;;;;;;;0.30;0.30;;;;;;;-146.26;100.00;59860.63;5078969;28;20048;-83
2024/03/14 07:57:16;;;;;;;8.15;7.63;;;;;;;-146.26;100.00;59860.63;5071289;28;20036;-82
2024/03/14 07:59:42;;;;;;;0.30;0.30;;;;;;;-146.26;100.00;59860.63;5087526;28;20042;-81
2024/03/14 08:02:12;;;;;;;0.30;0.30;;;;;;;-146.26;100.00;59860.63;5075839;28;20081;-82
2024/03/14 08:04:38;;;;;;;0.30;0.30;;;;;;;-146.26;100.00;59860.63;5085786;28;20040;-81
2024/03/14 08:07:17;;;;;;;0.38;0.38;;;;;;;-146.26;100.00;59860.63;5093451;28;20522;-84
2024/03/14 08:09:48;;;;;;;6.35;6.13;;;;;;;-146.26;100.00;59860.63;5077822;28;20123;-83
2024/03/14 08:12:15;;;;;;;0.22;0.22;;;;;;;-146.26;100.00;59860.63;5069735;28;20579;-83
2024/03/14 08:14:44;;;;;;;0.30;0.30;;;;;;;-146.26;100.00;59860.63;5105811;28;20562;-83
2024/03/14 08:17:13;;;;;;;0.93;0.93;;;;;;;-146.26;100.00;59860.63;5080686;28;20043;-82
2024/03/14 08:19:45;;;;;;;0.28;0.28;;;;;;;-146.26;100.00;59860.63;5083875;28;20052;-81
2024/03/14 08:22:11;;;;;;;0.30;0.30;;;;;;;-146.26;100.00;59860.63;5081883;28;20109;-85
2024/03/14 08:24:46;;;;;;;0.38;0.38;;;;;;;-146.26;100.00;59860.63;5078407;28;20072;-83
2024/03/14 08:27:12;;;;;;;0.30;0.30;;;;;;;-146.26;100.00;59860.63;5086388;28;20072;-81
2024/03/14 08:29:40;;;;;;;0.40;0.40;;;;;;;-146.26;100.00;59860.63;5086840;28;20846;-81
2024/03/14 08:32:06;;;;;;;0.20;0.20;;;;;;;-146.26;100.00;59860.63;5074109;28;20449;-81
2024/03/14 08:34:34;;;;;;;0.57;0.57;;;;;;;-146.26;100.00;59860.63;5085034;28;20505;-84
2024/03/14 08:37:00;;;;;;;0.40;0.40;;;;;;;-146.26;100.00;59860.63;5089005;28;20080;-83
2024/03/14 08:39:26;;;;;;;0.30;0.30;;;;;;;-146.26;100.00;59860.63;5081956;28;20479;-82
2024/03/14 08:41:53;;;;;;;2.00;1.80;;;;;;;-146.26;100.00;59860.63;5072061;28;20039;-82
2024/03/14 08:44:23;;;;;;;2.65;2.00;;;;;;;-146.26;100.00;59860.63;5068166;28;20028;-81
2024/03/14 08:46:50;;;;;;;0.20;0.20;;;;;;;-146.26;100.00;59860.63;5088880;28;20046;-82
2024/03/14 08:49:16;;;;;;;0.20;0.20;;;;;;;-146.26;100.00;59860.63;5063443;28;20052;-82
2024/03/14 08:51:42;;;;;;;0.28;0.28;;;;;;;-146.26;100.00;59860.63;5087594;28;20433;-83
2024/03/14 08:54:08;;;;;;;0.22;0.22;;;;;;;-146.26;100.00;59860.63;5079578;28;20936;-82
2024/03/14 08:56:35;;;;;;;0.20;0.20;;;;;;;-146.26;100.00;59860.63;5082501;28;20020;-82
2024/03/14 08:59:02;;;;;;;0.20;0.20;;;;;;;-146.26;100.00;59860.63;5075759;28;20048;-84
2024/03/14 09:01:30;;;;;;;0.20;0.20;;;;;;;-146.26;100.00;59860.63;5070105;28;20436;-82
2024/03/14 09:03:57;;;;;;;0.22;0.22;;;;;;;-146.26;100.00;59860.63;5065672;28;20072;-82
2024/03/14 09:06:28;;;;;;;0.30;0.30;;;;;;;-146.26;100.00;59860.63;5087894;28;20438;-83
2024/03/14 09:08:58;;;;;;;0.32;0.32;;;;;;;-146.26;100.00;59860.63;5085405;28;20138;-83
2024/03/14 09:11:27;;;;;;;0.52;0.52;;;;;;;-146.26;100.00;59860.63;5088068;28;20043;-82
2024/03/14 09:13:53;;;;;;;0.40;0.40;;;;;;;-146.26;100.00;59860.63;5085318;28;20060;-83
2024/03/14 09:16:19;;;;;;;0.20;0.20;;;;;;;-146.26;100.00;59860.63;5057762;28;20155;-81
2024/03/14 09:18:45;;;;;;;3.05;2.95;;;;;;;-146.26;100.00;59860.63;5069493;28;20040;-83
2024/03/14 09:21:11;;;;;;;0.47;0.43;;;;;;;-146.26;100.00;59860.63;5088080;28;20535;-83
2024/03/14 09:23:39;;;;;;;0.20;0.20;;;;;;;-146.26;100.00;59860.63;5052791;28;20031;-83
2024/03/14 09:26:05;;;;;;;1.05;1.05;;;;;;;-146.26;100.00;59860.63;5088325;28;20055;-82
2024/03/14 09:28:31;;;;;;;0.60;0.60;;;;;;;-146.26;100.00;59860.63;5066225;28;20444;-82
2024/03/14 09:31:01;;;;;;;0.20;0.20;;;;;;;-146.26;100.00;59860.63;5068344;28;20036;-87
2024/03/14 09:33:38;;;;;;;0.30;0.30;;;;;;;-146.26;100.00;59860.63;5088216;28;20437;-83
2024/03/14 09:36:09;;;;;;;1.02;0.90;;;;;;;-146.26;100.00;59860.63;5053580;28;20047;-84
2024/03/14 09:38:35;;;;;;;0.30;0.30;;;;;;;-146.26;100.00;59860.63;5090007;28;20056;-85
2024/03/14 09:41:00;;;;;;;0.22;0.22;;;;;;;-146.26;100.00;59860.63;5061296;28;20089;-83
2024/03/14 09:43:26;;;;;;;0.20;0.20;;;;;;;-146.26;100.00;59860.63;5084497;28;20372;-82
2024/03/14 09:45:55;;;;;;;0.30;0.30;;;;;;;-146.26;100.00;59860.63;5085045;28;20112;-84
2024/03/14 09:48:36;;;;;;;0.20;0.20;;;;;;;-146.26;100.00;59860.63;5084937;28;20074;-85
2024/03/14 09:51:07;;;;;;;0.30;0.30;;;;;;;-146.26;100.00;59860.63;5086487;28;20724;-85
2024/03/14 09:53:35;;;;;;;0.40;0.40;;;;;;;-146.26;100.00;59860.63;5065340;28;20807;-82
2024/03/14 09:56:01;;;;;;;0.22;0.22;;;;;;;-146.26;100.00;59860.63;5085056;28;20048;-85
2024/03/14 09:58:27;;;;;;;0.40;0.40;;;;;;;-146.26;100.00;59860.63;5086908;28;20059;-83
2024/03/14 10:00:55;;;;;;;1.13;1.10;;;;;;;-146.26;100.00;59860.63;5076331;28;20048;-83
2024/03/14 10:03:24;;;;;;;1.25;1.05;;;;;;;-146.26;100.00;59860.63;5088176;28;20500;-83
2024/03/14 10:05:53;;;;;;;0.30;0.30;;;;;;;-146.26;100.00;59860.63;5085483;28;20466;-81
2024/03/14 10:08:22;;;;;;;0.35;0.35;;;;;;;-146.26;100.00;59860.63;5085642;28;20352;-82
2024/03/14 10:10:47;;;;;;;0.40;0.30;;;;;;;-146.26;100.00;59860.63;5079276;28;20044;-82
2024/03/14 10:13:27;;;;;;;0.85;0.85;;;;;;;-146.26;100.00;59860.63;5083743;28;20206;-82
2024/03/14 10:15:54;;;;;;;0.20;0.20;;;;;;;-146.26;100.00;59860.63;5085762;28;20032;-81
2024/03/14 10:18:19;;;;;;;0.30;0.30;;;;;;;-146.26;100.00;59860.63;5067629;28;20064;-82
2024/03/14 10:20:45;;;;;;;2.05;1.38;;;;;;;-146.26;100.00;59860.63;5087852;28;20039;-83
2024/03/14 10:23:16;;;;;;;2.45;2.15;;;;;;;-146.26;100.00;59860.63;5072474;28;20055;-82
2024/03/14 10:25:50;;;;;;;0.47;0.47;;;;;;;-146.26;100.00;59860.63;5078262;28;20059;-82
2024/03/14 10:28:17;;;;;;;;;;;;;;;-146.26;100.00;59860.63;5081861;28;20036;-82
2024/03/14 10:30:57;;;;;;;0.82;0.82;;;;;;;-146.26;100.00;59860.63;5081227;28;20371;-81
2024/03/14 10:33:26;;;;;;;1.70;1.27;;;;;;;-146.26;100.00;59860.63;5079262;28;20044;-82
2024/03/14 10:35:58;;;;;;;4.03;3.33;;;;;;;-146.26;100.00;59860.63;5081057;28;20034;-83
2024/03/14 10:38:27;;;;;;;1.80;1.70;;;;;;;-146.26;100.00;59860.63;5085827;28;20036;-81
2024/03/14 10:41:05;;;;;;;0.30;0.30;;;;;;;-146.26;100.00;59860.63;5061507;28;20044;-83
2024/03/14 10:43:42;;;;;;;2.08;1.92;;;;;;;-146.26;100.00;59860.63;5086899;28;20384;-82
2024/03/14 10:46:15;;;;;;;1.10;1.08;;;;;;;-146.26;100.00;59860.63;5090646;28;20480;-82
2024/03/14 10:48:44;;;;;;;;;;;;;;;-146.26;100.00;59860.63;5086465;28;20384;-82
2024/03/14 10:51:12;;;;;;;0.30;0.30;;;;;;;-146.26;100.00;59860.63;5095762;28;19923;-83
2024/03/14 10:53:40;;;;;;;0.20;0.20;;;;;;;-146.26;100.00;59860.63;5085136;28;20120;-81
2024/03/14 10:56:16;;;;;;;0.50;0.50;;;;;;;-146.26;100.00;59860.63;5080631;28;20054;-82
2024/03/14 10:58:48;;;;;;;0.20;0.20;;;;;;;-146.26;100.00;59860.63;5078011;28;20040;-82
2024/03/14 11:01:15;;;;;;;2.50;2.17;;;;;;;-146.26;100.00;59860.63;5056240;28;20419;-83
2024/03/14 11:03:41;;;;;;;0.20;0.20;;;;;;;-146.26;100.00;59860.63;5083487;28;20459;-83
2024/03/14 11:06:19;;;;;;;2.33;1.90;;;;;;;-146.26;100.00;59860.63;5087703;28;20089;-83
2024/03/14 11:08:46;;;;;;;0.40;0.30;;;;;;;-146.26;100.00;59860.63;5079530;28;20039;-83
2024/03/14 11:11:17;;;;;;;1.73;1.33;;;;;;;-146.26;100.00;59860.63;5081213;28;20027;-82